1872 Major Hurricane NOT_NAMED (1872233N14334)


IBTrACS version v04r00. Visit IBTrACS website for data access.
Please direct all questions to the IBTrACS Q and A forum

Storm track - Intensity - Wind Radii - Intensity Data - Source Data - All data

Summary Information

Storm ID 1872233N14334
Start Aug 19 12Z
Max Intensity 130 kt (Aug 25 12Z), 928 mb (Aug 25 12Z)
End Sep 2 18Z
ATCF IDs ,AL021872
Track status Best track data.

Storm track plot

Map of storm track

Intensity plots

Map of storm track

Radial wind information

No radial wind information for this storm


Position and Intensity Table

BASIN ISO_TIME_________ NATURE LAT LON WMO WIND USA WIND MLC WIND MLC PRES
degrees north degrees east kts kts kts mb
NA 1872-08-19 12:00:00 TS 13.50 -26.50 30
NA 15:00:00 TS 13.66 -27.04 30
NA 18:00:00 TS 13.80 -27.60 30
NA 21:00:00 TS 13.90 -28.20 32
NA 1872-08-20 00:00:00 TS 14.10 -29.10 40 40 35
NA 03:00:00 TS 14.25 -29.71 40 37
NA 06:00:00 TS 14.36 -30.20 40 40 40
NA 09:00:00 TS 14.43 -30.60 40 42
NA 12:00:00 TS 14.50 -31.00 40 40 45
NA 15:00:00 TS 14.61 -31.48 40 47
NA 18:00:00 TS 14.73 -32.03 40 40 50
NA 21:00:00 TS 14.86 -32.66 40 52
NA 1872-08-21 00:00:00 TS 15.00 -33.33 40 40 55
NA 03:00:00 TS 15.16 -34.02 40 57
NA 06:00:00 TS 15.30 -34.67 40 40 60
NA 09:00:00 TS 15.37 -35.21 40 60
NA 12:00:00 TS 15.43 -35.70 40 40 60
NA 15:00:00 TS 15.54 -36.21 40 65
NA 18:00:00 TS 15.67 -36.73 40 40 70
NA 21:00:00 TS 15.80 -37.26 45 72
NA 1872-08-22 00:00:00 TS 15.93 -37.80 50 50 75
NA 03:00:00 TS 16.06 -38.34 50 77
NA 06:00:00 TS 16.17 -38.90 50 50 80
NA 09:00:00 TS 16.23 -39.51 50 82
NA 12:00:00 TS 16.30 -40.13 50 50 85
NA 15:00:00 TS 16.44 -40.76 50 87
NA 18:00:00 TS 16.60 -41.33 50 50 90
NA 21:00:00 TS 16.72 -41.78 55 90
NA 1872-08-23 00:00:00 TS 16.83 -42.23 60 60 90
NA 03:00:00 TS 16.99 -42.83 60 92
NA 06:00:00 TS 17.13 -43.47 60 60 95
NA 09:00:00 TS 17.22 -44.07 60 95
NA 12:00:00 TS 17.33 -44.63 60 60 95
NA 15:00:00 TS 17.54 -45.10 60 97
NA 18:00:00 TS 17.77 -45.57 60 60 100
NA 21:00:00 TS 17.94 -46.16 65 102
NA 1872-08-24 00:00:00 TS 18.10 -46.77 70 70 105
NA 03:00:00 TS 18.28 -47.28 70 107
NA 06:00:00 TS 18.47 -47.80 70 70 110
NA 09:00:00 TS 18.67 -48.41 70 110
NA 12:00:00 TS 18.87 -49.00 70 70 110
NA 15:00:00 TS 19.06 -49.48 70 112
NA 18:00:00 TS 19.23 -49.90 70 70 115
NA 21:00:00 TS 19.37 -50.31 70 117
NA 1872-08-25 00:00:00 TS 19.50 -50.73 70 70 120
NA 03:00:00 TS 19.64 -51.21 70 122
NA 06:00:00 TS 19.80 -51.73 70 70 125
NA 09:00:00 TS 20.00 -52.31 70 127
NA 12:00:00 TS 20.23 -52.83 70 70 130 928
NA 15:00:00 TS 20.48 -53.18 70 130
NA 18:00:00 TS 20.73 -53.47 70 70 130
NA 21:00:00 TS 20.95 -53.84 70 125
NA 1872-08-26 00:00:00 TS 21.17 -54.20 70 70 120
NA 03:00:00 TS 21.41 -54.49 70 110
NA 06:00:00 TS 21.67 -54.77 70 70 100
NA 09:00:00 TS 21.93 -55.11 70 100
NA 12:00:00 TS 22.17 -55.43 70 70 100
NA 15:00:00 TS 22.35 -55.66 70 100
NA 18:00:00 TS 22.53 -55.87 70 70 100
NA 21:00:00 TS 22.76 -56.15 70 100
NA 1872-08-27 00:00:00 TS 23.00 -56.47 70 70 100
NA 03:00:00 TS 23.19 -56.79 70 100
NA 06:00:00 TS 23.40 -57.13 70 70 100
NA 09:00:00 TS 23.69 -57.49 70 100
NA 12:00:00 TS 23.97 -57.83 70 70 100
NA 15:00:00 TS 24.14 -58.11 70 100
NA 18:00:00 TS 24.30 -58.37 70 70 100
NA 21:00:00 TS 24.54 -58.63 75 100
NA 1872-08-28 00:00:00 TS 24.80 -58.90 80 80 100
NA 03:00:00 TS 25.02 -59.17 80 100
NA 06:00:00 TS 25.27 -59.47 80 80 100
NA 09:00:00 TS 25.59 -59.83 80 97
NA 12:00:00 TS 25.97 -60.20 80 80 95
NA 15:00:00 TS 26.35 -60.52 80 95
NA 18:00:00 TS 26.77 -60.80 80 80 95
NA 21:00:00 TS 27.20 -61.05 85 95
NA 1872-08-29 00:00:00 TS 27.63 -61.27 90 90 95
NA 03:00:00 TS 28.03 -61.44 90 92
NA 06:00:00 TS 28.43 -61.60 90 90 90
NA 09:00:00 TS 28.89 -61.79 90 90
NA 12:00:00 TS 29.33 -61.93 90 90 90 975
NA 15:00:00 TS 29.72 -61.95 90 90
NA 18:00:00 TS 30.25 -61.98 90 90 90
NA 21:00:00 TS 30.85 -62.09 90 90
NA 1872-08-30 00:00:00 TS 31.57 -62.20 90 90 90
NA 03:00:00 TS 32.41 -62.27 90
NA 06:00:00 TS 33.00 -62.20 90 90
NA 09:00:00 TS 33.74 -62.10 90
NA 12:00:00 TS 34.50 -62.00 90 90
NA 15:00:00 TS 35.11 -61.95 90
NA 18:00:00 TS 35.70 -61.90 90 90
NA 21:00:00 TS 36.34 -61.83 90
NA 1872-08-31 00:00:00 TS 37.00 -61.70 90 90
NA 03:00:00 TS 37.66 -61.49 90
NA 06:00:00 TS 38.30 -61.20 90 90
NA 09:00:00 TS 38.92 -60.89 85
NA 12:00:00 TS 39.50 -60.50 80 80
NA 15:00:00 TS 39.98 -60.02 80
NA 18:00:00 TS 40.50 -59.40 80 80
NA 21:00:00 TS 41.19 -58.56 80
NA 1872-09-01 00:00:00 TS 41.90 -57.70 80 80
NA 03:00:00 TS 42.46 -57.02 80
NA 06:00:00 TS 43.00 -56.50 80 80
NA 09:00:00 TS 43.63 -56.09 75
NA 12:00:00 TS 44.20 -55.90 70 70
NA 15:00:00 TS 44.60 -55.96 70
NA 18:00:00 TS 44.90 -56.20 70 70
NA 21:00:00 TS 45.18 -56.46 70
NA 1872-09-02 00:00:00 ET 45.40 -56.80 70 70
NA 03:00:00 ET 45.53 -57.18 70
NA 06:00:00 ET 45.70 -57.60 70 70
NA 09:00:00 ET 46.05 -58.03 65
NA 12:00:00 ET 46.50 -58.50 60 60
NA 15:00:00 ET 46.99 -59.03 55
NA 18:00:00 ET 47.50 -59.60 50 50

Source Information

Agency Information
USA hurdat2-1851-2018-051019.txt:Line=2348:UNNAMED
TOKYO
CMA
HKO
NEWDELHI
REUNION
BOM
NADI
WELLINGTON
DS824
TD9636
TD9635
NEUMANN
MLC

All available IBTrACS Data

SEASON BASIN SUBBASIN ISO_TIME_________ NATURE LAT LON WMO WIND WMO AGENCY DIST2LAND LANDFALL IFLAG USA AGENCY USA ATCF_ID USA LAT USA LON USA STATUS USA WIND USA SSHS MLC LAT MLC LON MLC CLASS MLC WIND MLC PRES STORM SPEED STORM DIR
Year degrees north degrees east kts km km degrees north degrees east kts 1 degrees north degrees east kts mb kts degrees
1872 NA NA 1872-08-19 12:00:00 TS 13.50 -26.50 980 980 _____________O -1 13.50 -26.50 TD 30 11 287
1872 NA NA 15:00:00 TS 13.66 -27.04 1030 1030 _____________P -1 13.66 -27.04 TD 30 11 286
1872 NA NA 18:00:00 TS 13.80 -27.60 1093 1093 _____________O -1 13.80 -27.60 TD 30 12 282
1872 NA NA 21:00:00 TS 13.90 -28.20 1156 1156 _____________P -1 13.90 -28.20 TD 32 15 282
1872 NA NA 1872-08-20 00:00:00 TS 14.10 -29.10 40 hurdat_atl 1251 1251 O____________O hurdat_atl AL021872 14.30 -29.70 TS 40 0 14.00 -28.80 TS 35 15 283
1872 NA NA 03:00:00 TS 14.25 -29.71 1314 1314 P____________P AL021872 14.35 -30.07 TS 40 0 14.15 -29.36 TS 37 11 284
1872 NA NA 06:00:00 TS 14.36 -30.20 40 hurdat_atl 1367 1367 O____________O hurdat_atl AL021872 14.40 -30.40 TS 40 0 14.30 -29.90 TS 40 9 282
1872 NA NA 09:00:00 TS 14.43 -30.60 1410 1410 P____________P AL021872 14.44 -30.68 TS 40 0 14.40 -30.45 TS 42 8 280
1872 NA NA 12:00:00 TS 14.50 -31.00 40 hurdat_atl 1453 1453 O____________O hurdat_atl AL021872 14.50 -31.00 TS 40 0 14.50 -31.00 TS 45 9 282
1872 NA NA 15:00:00 TS 14.61 -31.48 1506 1506 P____________P AL021872 14.58 -31.44 TS 40 0 14.65 -31.55 TS 47 10 283
1872 NA NA 18:00:00 TS 14.73 -32.03 40 hurdat_atl 1560 1560 O____________O hurdat_atl AL021872 14.70 -32.00 TS 40 0 14.80 -32.10 TS 50 12 283
1872 NA NA 21:00:00 TS 14.86 -32.66 1634 1634 P____________P AL021872 14.84 -32.67 TS 40 0 14.90 -32.64 TS 52 13 282
1872 NA NA 1872-08-21 00:00:00 TS 15.00 -33.33 40 hurdat_atl 1698 1698 O____________O hurdat_atl AL021872 15.00 -33.40 TS 40 0 15.00 -33.20 TS 55 13 283
1872 NA NA 03:00:00 TS 15.16 -34.02 1773 1773 P____________P AL021872 15.17 -34.13 TS 40 0 15.15 -33.80 TS 57 13 283
1872 NA NA 06:00:00 TS 15.30 -34.67 40 hurdat_atl 1848 1848 O____________O hurdat_atl AL021872 15.30 -34.80 TS 40 0 15.30 -34.40 TS 60 12 280
1872 NA NA 09:00:00 TS 15.37 -35.21 1902 1902 P____________P AL021872 15.36 -35.33 TS 40 0 15.40 -34.96 TS 60 10 278
1872 NA NA 12:00:00 TS 15.43 -35.70 40 hurdat_atl 1956 1956 O____________O hurdat_atl AL021872 15.40 -35.80 TS 40 0 15.50 -35.50 TS 60 10 280
1872 NA NA 15:00:00 TS 15.54 -36.21 2009 2009 P____________P AL021872 15.48 -36.30 TS 40 0 15.65 -36.04 TS 65 10 283
1872 NA NA 18:00:00 TS 15.67 -36.73 40 hurdat_atl 2044 2009 O____________O hurdat_atl AL021872 15.60 -36.80 TS 40 0 15.80 -36.60 HU 70 10 284
1872 NA NA 21:00:00 TS 15.80 -37.26 2000 1966 P____________P AL021872 15.75 -37.29 TS 45 0 15.90 -37.20 HU 72 11 285
1872 NA NA 1872-08-22 00:00:00 TS 15.93 -37.80 50 hurdat_atl 1966 1933 O____________O hurdat_atl AL021872 15.90 -37.80 TS 50 0 16.00 -37.80 HU 75 11 284
1872 NA NA 03:00:00 TS 16.06 -38.34 1940 1900 P____________P AL021872 16.01 -38.33 TS 50 0 16.15 -38.36 HU 77 11 282
1872 NA NA 06:00:00 TS 16.17 -38.90 50 hurdat_atl 1900 1854 O____________O hurdat_atl AL021872 16.10 -38.90 TS 50 0 16.30 -38.90 HU 80 11 279
1872 NA NA 09:00:00 TS 16.23 -39.51 1854 1817 P____________P AL021872 16.14 -39.54 TS 50 0 16.40 -39.44 HU 82 12 276
1872 NA NA 12:00:00 TS 16.30 -40.13 50 hurdat_atl 1817 1782 O____________O hurdat_atl AL021872 16.20 -40.20 TS 50 0 16.50 -40.00 HU 85 12 280
1872 NA NA 15:00:00 TS 16.44 -40.76 1775 1756 P____________P AL021872 16.34 -40.84 TS 50 0 16.64 -40.60 HU 87 12 285
1872 NA NA 18:00:00 TS 16.60 -41.33 50 hurdat_atl 1757 1733 O____________O hurdat_atl AL021872 16.50 -41.40 TS 50 0 16.80 -41.20 HU 90 10 286
1872 NA NA 21:00:00 TS 16.72 -41.78 1733 1716 P____________P AL021872 16.60 -41.79 TS 55 0 16.95 -41.76 HU 90 9 285
1872 NA NA 1872-08-23 00:00:00 TS 16.83 -42.23 60 hurdat_atl 1716 1694 O____________O hurdat_atl AL021872 16.70 -42.20 TS 60 0 17.10 -42.30 HU 90 10 285
1872 NA NA 03:00:00 TS 16.99 -42.83 1697 1667 P____________P AL021872 16.85 -42.82 TS 60 0 17.26 -42.85 HU 92 12 284
1872 NA NA 06:00:00 TS 17.13 -43.47 60 hurdat_atl 1661 1638 O____________O hurdat_atl AL021872 17.00 -43.50 TS 60 0 17.40 -43.40 HU 95 12 281
1872 NA NA 09:00:00 TS 17.22 -44.07 1631 1610 P____________P AL021872 17.08 -44.14 TS 60 0 17.50 -43.94 HU 95 11 280
1872 NA NA 12:00:00 TS 17.33 -44.63 60 hurdat_atl 1610 1601 O____________O hurdat_atl AL021872 17.20 -44.70 TS 60 0 17.60 -44.50 HU 95 10 288
1872 NA NA 15:00:00 TS 17.54 -45.10 1601 1598 P____________P AL021872 17.43 -45.10 TS 60 0 17.75 -45.09 HU 97 10 296
1872 NA NA 18:00:00 TS 17.77 -45.57 60 hurdat_atl 1603 1587 O____________O hurdat_atl AL021872 17.70 -45.50 TS 60 0 17.90 -45.70 MH 100 11 292
1872 NA NA 21:00:00 TS 17.94 -46.16 1583 1573 P____________P AL021872 17.91 -46.09 TS 65 1 18.00 -46.31 MH 102 12 286
1872 NA NA 1872-08-24 00:00:00 TS 18.10 -46.77 70 hurdat_atl 1574 1567 O____________O hurdat_atl AL021872 18.10 -46.70 HU 70 1 18.10 -46.90 MH 105 11 288
1872 NA NA 03:00:00 TS 18.28 -47.28 1573 1565 P____________P AL021872 18.29 -47.20 HU 70 1 18.25 -47.45 MH 107 10 290
1872 NA NA 06:00:00 TS 18.47 -47.80 70 hurdat_atl 1572 1559 O____________O hurdat_atl AL021872 18.50 -47.70 HU 70 1 18.40 -48.00 MH 110 11 290
1872 NA NA 09:00:00 TS 18.67 -48.41 1565 1554 P____________P AL021872 18.75 -48.31 HU 70 1 18.50 -48.62 MH 110 12 289
1872 NA NA 12:00:00 TS 18.87 -49.00 70 hurdat_atl 1560 1545 O____________O hurdat_atl AL021872 19.00 -48.90 HU 70 1 18.60 -49.20 MH 110 11 291
1872 NA NA 15:00:00 TS 19.06 -49.48 1552 1524 P____________P AL021872 19.21 -49.39 HU 70 1 18.75 -49.66 MH 112 9 293
1872 NA NA 18:00:00 TS 19.23 -49.90 70 hurdat_atl 1524 1505 O____________O hurdat_atl AL021872 19.40 -49.80 HU 70 1 18.90 -50.10 MH 115 8 292
1872 NA NA 21:00:00 TS 19.37 -50.31 1505 1480 P____________P AL021872 19.56 -50.15 HU 70 1 19.00 -50.63 MH 117 8 289
1872 NA NA 1872-08-25 00:00:00 TS 19.50 -50.73 70 hurdat_atl 1480 1448 O____________O hurdat_atl AL021872 19.70 -50.50 HU 70 1 19.10 -51.20 MH 120 9 287
1872 NA NA 03:00:00 TS 19.64 -51.21 1448 1424 P____________P AL021872 19.83 -50.92 HU 70 1 19.24 -51.80 MH 122 10 288
1872 NA NA 06:00:00 TS 19.80 -51.73 70 hurdat_atl 1425 1396 O____________O hurdat_atl AL021872 20.00 -51.40 HU 70 1 19.40 -52.40 MH 125 11 289
1872 NA NA 09:00:00 TS 20.00 -52.31 1397 1357 P____________P AL021872 20.24 -51.96 HU 70 1 19.52 -53.02 MH 127 11 293
1872 NA NA 12:00:00 TS 20.23 -52.83 70 hurdat_atl 1357 1320 O____________O hurdat_atl AL021872 20.50 -52.50 HU 70 1 19.70 -53.50 MH 130 928 9 301
1872 NA NA 15:00:00 TS 20.48 -53.18 1320 1301 P____________P AL021872 20.71 -52.92 HU 70 1 20.02 -53.70 MH 130 8 310
1872 NA NA 18:00:00 TS 20.73 -53.47 70 hurdat_atl 1293 1266 O____________O hurdat_atl AL021872 20.90 -53.30 HU 70 1 20.40 -53.80 MH 130 8 307
1872 NA NA 21:00:00 TS 20.95 -53.84 1268 1230 P____________P AL021872 21.05 -53.76 HU 70 1 20.75 -54.00 MH 125 8 302
1872 NA NA 1872-08-26 00:00:00 TS 21.17 -54.20 70 hurdat_atl 1232 1207 O____________O hurdat_atl AL021872 21.20 -54.20 HU 70 1 21.10 -54.20 MH 120 8 307
1872 NA NA 03:00:00 TS 21.41 -54.49 1207 1193 P____________P AL021872 21.39 -54.56 HU 70 1 21.45 -54.35 MH 110 7 313
1872 NA NA 06:00:00 TS 21.67 -54.77 70 hurdat_atl 1186 1163 O____________O hurdat_atl AL021872 21.60 -54.90 HU 70 1 21.80 -54.50 MH 100 8 312
1872 NA NA 09:00:00 TS 21.93 -55.11 1163 1141 P____________P AL021872 21.82 -55.31 HU 70 1 22.15 -54.70 MH 100 8 309
1872 NA NA 12:00:00 TS 22.17 -55.43 70 hurdat_atl 1144 1129 O____________O hurdat_atl AL021872 22.00 -55.70 HU 70 1 22.50 -54.90 MH 100 7 310
1872 NA NA 15:00:00 TS 22.35 -55.66 1124 1109 P____________P AL021872 22.09 -55.96 HU 70 1 22.87 -55.05 MH 100 5 312
1872 NA NA 18:00:00 TS 22.53 -55.87 70 hurdat_atl 1109 1099 O____________O hurdat_atl AL021872 22.20 -56.20 HU 70 1 23.20 -55.20 MH 100 6 312
1872 NA NA 21:00:00 TS 22.76 -56.15 1103 1080 P____________P AL021872 22.44 -56.53 HU 70 1 23.42 -55.38 MH 100 7 310
1872 NA NA 1872-08-27 00:00:00 TS 23.00 -56.47 70 hurdat_atl 1076 1060 O____________O hurdat_atl AL021872 22.70 -56.90 HU 70 1 23.60 -55.60 MH 100 7 306
1872 NA NA 03:00:00 TS 23.19 -56.79 1060 1038 P____________P AL021872 22.89 -57.24 HU 70 1 23.79 -55.89 MH 100 7 303
1872 NA NA 06:00:00 TS 23.40 -57.13 70 hurdat_atl 1044 1027 O____________O hurdat_atl AL021872 23.10 -57.60 HU 70 1 24.00 -56.20 MH 100 8 308
1872 NA NA 09:00:00 TS 23.69 -57.49 1027 1015 P____________P AL021872 23.41 -58.01 HU 70 1 24.25 -56.45 MH 100 9 312
1872 NA NA 12:00:00 TS 23.97 -57.83 70 hurdat_atl 1022 1004 O____________O hurdat_atl AL021872 23.70 -58.40 HU 70 1 24.50 -56.70 MH 100 7 308
1872 NA NA 15:00:00 TS 24.14 -58.11 1004 995 P____________P AL021872 23.86 -58.67 HU 70 1 24.70 -56.99 MH 100 6 304
1872 NA NA 18:00:00 TS 24.30 -58.37 70 hurdat_atl 995 994 O____________O hurdat_atl AL021872 24.00 -58.90 HU 70 1 24.90 -57.30 MH 100 6 310
1872 NA NA 21:00:00 TS 24.54 -58.63 994 994 P____________P AL021872 24.23 -59.14 HU 75 1 25.15 -57.61 MH 100 7 316
1872 NA NA 1872-08-28 00:00:00 TS 24.80 -58.90 80 hurdat_atl 995 989 O____________O hurdat_atl AL021872 24.50 -59.40 HU 80 1 25.40 -57.90 MH 100 7 314
1872 NA NA 03:00:00 TS 25.02 -59.17 990 990 P____________P AL021872 24.73 -59.68 HU 80 1 25.60 -58.15 MH 100 7 312
1872 NA NA 06:00:00 TS 25.27 -59.47 80 hurdat_atl 995 988 O____________O hurdat_atl AL021872 25.00 -60.00 HU 80 1 25.80 -58.40 MH 100 8 314
1872 NA NA 09:00:00 TS 25.59 -59.83 1002 996 P____________P AL021872 25.36 -60.40 HU 80 1 26.05 -58.69 MH 97 10 317
1872 NA NA 12:00:00 TS 25.97 -60.20 80 hurdat_atl 1014 1009 O____________O hurdat_atl AL021872 25.80 -60.80 HU 80 1 26.30 -59.00 HU 95 10 321
1872 NA NA 15:00:00 TS 26.35 -60.52 1036 1031 P____________P AL021872 26.28 -61.13 HU 80 1 26.51 -59.30 HU 95 10 326
1872 NA NA 18:00:00 TS 26.77 -60.80 80 hurdat_atl 1060 1060 O____________O hurdat_atl AL021872 26.80 -61.40 HU 80 1 26.70 -59.60 HU 95 10 331
1872 NA NA 21:00:00 TS 27.20 -61.05 1086 1086 P____________P AL021872 27.35 -61.63 HU 85 2 26.90 -59.90 HU 95 10 334
1872 NA NA 1872-08-29 00:00:00 TS 27.63 -61.27 90 hurdat_atl 1118 1118 O____________O hurdat_atl AL021872 27.90 -61.80 HU 90 2 27.10 -60.20 HU 95 9 337
1872 NA NA 03:00:00 TS 28.03 -61.44 1155 1155 P____________P AL021872 28.40 -61.92 HU 90 2 27.29 -60.50 HU 92 9 340
1872 NA NA 06:00:00 TS 28.43 -61.60 90 hurdat_atl 1189 1189 O____________O hurdat_atl AL021872 28.90 -62.00 HU 90 2 27.50 -60.80 HU 90 9 340
1872 NA NA 09:00:00 TS 28.89 -61.79 1235 1235 P____________P AL021872 29.46 -62.11 HU 90 2 27.74 -61.14 HU 90 10 342
1872 NA NA 12:00:00 TS 29.33 -61.93 90 hurdat_atl 1274 1274 O____________O hurdat_atl AL021872 30.00 -62.20 HU 90 2 28.00 -61.40 HU 90 975 9 350
1872 NA NA 15:00:00 TS 29.72 -61.95 1314 1314 P____________P AL021872 30.46 -62.21 HU 90 2 28.26 -61.45 HU 90 9 358
1872 NA NA 18:00:00 TS 30.25 -61.98 90 hurdat_atl 1367 1360 O____________O hurdat_atl AL021872 30.90 -62.20 HU 90 2 28.50 -61.40 HU 90 11 354
1872 NA NA 21:00:00 TS 30.85 -62.09 1360 1317 P____________P AL021872 31.39 -62.26 HU 90 2 28.71 -61.38 HU 90 13 352
1872 NA NA 1872-08-30 00:00:00 TS 31.57 -62.20 90 hurdat_atl 1312 1238 O____________O hurdat_atl AL021872 31.90 -62.30 HU 90 2 28.90 -61.40 HU 90 16 354
1872 NA NA 03:00:00 TS 32.41 -62.27 1238 1187 P_____________ AL021872 32.41 -62.27 HU 90 2 HU 14 0
1872 NA NA 06:00:00 TS 33.00 -62.20 90 hurdat_atl 1187 1125 O_____________ hurdat_atl AL021872 33.00 -62.20 HU 90 2 13 6
1872 NA NA 09:00:00 TS 33.74 -62.10 1125 1041 P_____________ AL021872 33.74 -62.10 HU 90 2 15 6
1872 NA NA 12:00:00 TS 34.50 -62.00 90 hurdat_atl 1041 976 O_____________ hurdat_atl AL021872 34.50 -62.00 HU 90 2 14 5
1872 NA NA 15:00:00 TS 35.11 -61.95 979 915 P_____________ AL021872 35.11 -61.95 HU 90 2 12 4
1872 NA NA 18:00:00 TS 35.70 -61.90 90 hurdat_atl 915 854 O_____________ hurdat_atl AL021872 35.70 -61.90 HU 90 2 12 4
1872 NA NA 21:00:00 TS 36.34 -61.83 854 784 P_____________ AL021872 36.34 -61.83 HU 90 2 13 7
1872 NA NA 1872-08-31 00:00:00 TS 37.00 -61.70 90 hurdat_atl 784 730 O_____________ hurdat_atl AL021872 37.00 -61.70 HU 90 2 13 12
1872 NA NA 03:00:00 TS 37.66 -61.49 720 672 P_____________ AL021872 37.66 -61.49 HU 90 2 14 17
1872 NA NA 06:00:00 TS 38.30 -61.20 90 hurdat_atl 672 629 O_____________ hurdat_atl AL021872 38.30 -61.20 HU 90 2 13 20
1872 NA NA 09:00:00 TS 38.92 -60.89 629 596 P_____________ AL021872 38.92 -60.89 HU 85 2 13 24
1872 NA NA 12:00:00 TS 39.50 -60.50 80 hurdat_atl 596 567 O_____________ hurdat_atl AL021872 39.50 -60.50 HU 80 1 13 32
1872 NA NA 15:00:00 TS 39.98 -60.02 570 540 P_____________ AL021872 39.98 -60.02 HU 80 1 13 40
1872 NA NA 18:00:00 TS 40.50 -59.40 80 hurdat_atl 540 488 O_____________ hurdat_atl AL021872 40.50 -59.40 HU 80 1 16 43
1872 NA NA 21:00:00 TS 41.19 -58.56 488 457 P_____________ AL021872 41.19 -58.56 HU 80 1 19 42
1872 NA NA 1872-09-01 00:00:00 TS 41.90 -57.70 80 hurdat_atl 457 442 O_____________ hurdat_atl AL021872 41.90 -57.70 HU 80 1 17 42
1872 NA NA 03:00:00 TS 42.46 -57.02 438 421 P_____________ AL021872 42.46 -57.02 HU 80 1 14 39
1872 NA NA 06:00:00 TS 43.00 -56.50 80 hurdat_atl 421 356 O_____________ hurdat_atl AL021872 43.00 -56.50 HU 80 1 13 30
1872 NA NA 09:00:00 TS 43.63 -56.09 356 289 P_____________ AL021872 43.63 -56.09 HU 75 1 13 20
1872 NA NA 12:00:00 TS 44.20 -55.90 70 hurdat_atl 289 244 O_____________ hurdat_atl AL021872 44.20 -55.90 HU 70 1 10 5
1872 NA NA 15:00:00 TS 44.60 -55.96 245 214 P_____________ AL021872 44.60 -55.96 HU 70 1 7 343
1872 NA NA 18:00:00 TS 44.90 -56.20 70 hurdat_atl 214 185 O_____________ hurdat_atl AL021872 44.90 -56.20 HU 70 1 7 328
1872 NA NA 21:00:00 TS 45.18 -56.46 188 173 P_____________ AL021872 45.18 -56.46 HU 70 1 7 320
1872 NA NA 1872-09-02 00:00:00 ET 45.40 -56.80 70 hurdat_atl 176 171 O_____________ hurdat_atl AL021872 45.40 -56.80 EX 70 -4 6 305
1872 NA NA 03:00:00 ET 45.53 -57.18 184 178 P_____________ AL021872 45.53 -57.18 EX 70 -4 6 298
1872 NA NA 06:00:00 ET 45.70 -57.60 70 hurdat_atl 178 139 O_____________ hurdat_atl AL021872 45.70 -57.60 EX 70 -4 8 311
1872 NA NA 09:00:00 ET 46.05 -58.03 139 104 P_____________ AL021872 46.05 -58.03 EX 65 -4 10 322
1872 NA NA 12:00:00 ET 46.50 -58.50 60 hurdat_atl 104 66 O_____________ hurdat_atl AL021872 46.50 -58.50 EX 60 -4 12 324
1872 NA NA 15:00:00 ET 46.99 -59.03 66 23 P_____________ AL021872 46.99 -59.03 EX 55 -4 12 323
1872 NA NA 18:00:00 ET 47.50 -59.60 50 hurdat_atl 25 O_____________ hurdat_atl AL021872 47.50 -59.60 EX 50 -4 13 323